Airfield :
LOGIN :

Register | Disclaimer

   EN    FR    IT 

 










Legend :    VFR   Marginal VFR   IFR   Intensive IFR   Very Intensive IFR
Visi :
Ceiling :
>= 8 km
>= 3000ft
5 to 8 km
1000 to 3000 ft
1500m to 5 km
500 to 1000 ft
800 to 1500m
200 to 500 ft
< 800m
< 200 ft
Symbols :   Thunderstorms  Fog  Heavy snow  Heavy precipitations  Wind > 20 kt
SIGMETs :     Misc.  Thunderstorms  Icing  Turbulence  Mountain Waves  Volcanic Ashes







- Airport Elevation : 75 ft
- IATA code : YEO


EGDY - RNAS Yeovilton

CURRENT METAR :
  • 160750Z 09002KT 0150 FG OVC000 13/12 Q1015 RED BECMG 3500 BR BKN004 YLO2

EXPIRED METARs :
  • 160709Z 07002KT 0300 FG FEW002 BKN004 13/12 Q1015 RED BECMG 3500 BR BKN004 YLO2
  • 160650Z 04002KT 1000 BR FEW002 BKN004 12/12 Q1015 AMB TEMPO 0500 FG SCT000 RED
  • 160550Z 06003KT 1500 BR FEW002 BKN005 12/12 Q1014 AMB TEMPO 0500 FG BKN001

TAF TAF EGDY
Valid from the 16 at 06:00 until the 16 at 15:00 UTC


160457Z 1606/1615 VRB03KT 1200 BR BKN004
PROB40
TEMPO 1606/1608 0500 FG BKN002
BECMG 1608/1610 6000 HZ BKN006
PROB30
TEMPO 1608/1610 4000 -DZ OVC004
BECMG 1610/1612 22010KT 9999 SCT015
No reported NOTAMs for that airfield.



MET'MAP, your aeronautical weather chart ! - Copyright ORBIFLY December 2007 - Disclaimer

ORBIFLY MET'MAP TEAM :

Programming & Development : Alexandra Zaïnal
Concept & Development : Baudouin d'Aumeries
Co-Development & Prog : Marc-Olivier Méhu
Technical & hardware support : Manuel Goepfert

Contact : metmap@orbifly.com




SOURCES & CREDITS :

   NOAA